Time;durP1;ratioP1;P1;durP2;ratioP2;P2;SDS_P1;SDS_P2;PMS_P1;PMS_P2;Temp;Humidity;BMP_temperature;BMP_pressure;BME280_temperature;BME280_humidity;BME280_pressure;Samples;Min_cycle;Max_cycle;Signal;HPM_P1;HPM_P2
2022/05/24 00:02:19;;;;;;;;;;;;;;;;;;5053048;28;20364;-53
2022/05/24 00:04:45;;;;;;;;;;;;;;;;;;5052786;28;19909;-52
2022/05/24 00:07:11;;;;;;;;;;;;;;;;;;5053252;28;19924;-51
2022/05/24 00:09:38;;;;;;;;;;;;;;;;;;5052566;28;19915;-55
2022/05/24 00:12:04;;;;;;;;;;;;;;;;;;5052883;28;19927;-50
2022/05/24 00:17:15;;;;;;;;;;;;;;;;;;5052642;28;20016;-47
2022/05/24 00:19:42;;;;;;;;;;;;;;;;;;5052979;28;19944;-51
2022/05/24 00:22:08;;;;;;;;;;;;;;;;;;5053008;28;19962;-56
2022/05/24 00:24:35;;;;;;;;;;;;;;;;;;5052500;28;19908;-47
2022/05/24 00:27:01;;;;;;;;;;;;;;;;;;5052743;28;19935;-48
2022/05/24 00:29:28;;;;;;;;;;;;;;;;;;5052514;28;20409;-60
2022/05/24 00:31:54;;;;;;;;;;;;;;;;;;5052567;28;19927;-52
2022/05/24 00:34:21;;;;;;;;;;;;;;;;;;5052491;28;19912;-57
2022/05/24 00:36:47;;;;;;;;;;;;;;;;;;5052543;28;19948;-53
2022/05/24 00:39:13;;;;;;;;;;;;;;;;;;5052829;28;19913;-49
2022/05/24 00:41:40;;;;;;;;;;;;;;;;;;5052733;28;19908;-49
2022/05/24 00:44:06;;;;;;;;;;;;;;;;;;5052692;28;19916;-47
2022/05/24 00:46:33;;;;;;;;;;;;;;;;;;5052559;28;19909;-48
2022/05/24 00:48:59;;;;;;;;;;;;;;;;;;5052985;28;19909;-48
2022/05/24 00:51:26;;;;;;;;;;;;;;;;;;5052361;28;19917;-47
2022/05/24 00:53:52;;;;;;;;;;;;;;;;;;5052036;28;19908;-53
2022/05/24 00:56:19;;;;;;;;;;;;;;;;;;5052342;28;19909;-51
2022/05/24 00:58:45;;;;;;;;;;;;;;;;;;5052402;28;19913;-44
2022/05/24 01:01:11;;;;;;;;;;;;;;;;;;5051837;28;19909;-46
2022/05/24 01:03:38;;;;;;;;;;;;;;;;;;5051885;28;19955;-43
2022/05/24 01:06:04;;;;;;;;;;;;;;;;;;5051001;28;19913;-46
2022/05/24 01:08:32;;;;;;;;;;;;;;;;;;5051069;28;19913;-55
2022/05/24 01:10:59;;;;;;;;;;;;;;;;;;5050573;28;19970;-46
2022/05/24 01:13:25;;;;;;;;;;;;;;;;;;5050179;28;19920;-47
2022/05/24 01:15:52;;;;;;;;;;;;;;;;;;5052231;28;20000;-52
2022/05/24 01:18:18;;;;;;;;;;;;;;;;;;5051848;28;20340;-51
2022/05/24 01:20:45;;;;;;;;;;;;;;;;;;5051759;28;20310;-56
2022/05/24 01:23:11;;;;;;;;;;;;;;;;;;5052271;28;19992;-49
2022/05/24 01:25:38;;;;;;;;;;;;;;;;;;5052207;28;19916;-55
2022/05/24 01:28:04;;;;;;;;;;;;;;;;;;5051945;28;19936;-48
2022/05/24 01:30:31;;;;;;;;;;;;;;;;;;5051393;28;20011;-48
2022/05/24 01:38:27;;;;;;;;;;;;;;;;;;5052457;28;20323;-52
2022/05/24 01:40:53;;;;;;;;;;;;;;;;;;5052080;28;19992;-47
2022/05/24 01:43:19;;;;;;;;;;;;;;;;;;5052592;28;19916;-50
2022/05/24 01:45:46;;;;;;;;;;;;;;;;;;5052767;28;19909;-53
2022/05/24 01:48:12;;;;;;;;;;;;;;;;;;5053198;28;20271;-53
2022/05/24 01:50:39;;;;;;;;;;;;;;;;;;5050734;28;19917;-54
2022/05/24 01:53:05;;;;;;;;;;;;;;;;;;5048047;28;19917;-54
2022/05/24 01:55:32;;;;;;;;;;;;;;;;;;5049318;28;20339;-54
2022/05/24 01:57:58;;;;;;;;;;;;;;;;;;5049032;28;19908;-54
2022/05/24 02:00:25;;;;;;;;;;;;;;;;;;5048877;28;19955;-59
2022/05/24 02:02:51;;;;;;;;;;;;;;;;;;5048586;28;19983;-51
2022/05/24 02:05:18;;;;;;;;;;;;;;;;;;5049094;28;20008;-47
2022/05/24 02:07:44;;;;;;;;;;;;;;;;;;5046123;28;19916;-48
2022/05/24 02:10:11;;;;;;;;;;;;;;;;;;5050303;28;20027;-52
2022/05/24 02:12:37;;;;;;;;;;;;;;;;;;5049052;28;19936;-55
2022/05/24 02:15:04;;;;;;;;;;;;;;;;;;5052381;28;19919;-50
2022/05/24 02:17:31;;;;;;;;;;;;;;;;;;5049667;28;19916;-58
2022/05/24 02:19:57;;;;;;;;;;;;;;;;;;5052604;28;20320;-56
2022/05/24 02:22:24;;;;;;;;;;;;;;;;;;5052524;28;19916;-51
2022/05/24 02:24:50;;;;;;;;;;;;;;;;;;5052127;28;19999;-51
2022/05/24 02:27:17;;;;;;;;;;;;;;;;;;5049388;28;19909;-56
2022/05/24 02:29:43;;;;;;;;;;;;;;;;;;5052335;28;19912;-52
2022/05/24 02:32:10;;;;;;;;;;;;;;;;;;5052251;28;19917;-51
2022/05/24 02:34:37;;;;;;;;;;;;;;;;;;5050616;28;20267;-49
2022/05/24 02:37:04;;;;;;;;;;;;;;;;;;5049606;28;19921;-47
2022/05/24 02:41:28;;;;;;;;;;;;;;;;;;5052593;28;19995;-43
2022/05/24 02:42:16;;;;;;;;;;;;;;;;;;5051702;28;19995;-43
2022/05/24 02:44:43;;;;;;;;;;;;;;;;;;5052145;28;19909;-41
2022/05/24 02:47:09;;;;;;;;;;;;;;;;;;5048903;28;19917;-46
2022/05/24 02:49:37;;;;;;;;;;;;;;;;;;5052196;28;19913;-48
2022/05/24 02:52:04;;;;;;;;;;;;;;;;;;5050421;28;19931;-44
2022/05/24 02:54:30;;;;;;;;;;;;;;;;;;5051459;28;20343;-50
2022/05/24 02:56:58;;;;;;;;;;;;;;;;;;5049555;28;19963;-45
2022/05/24 02:59:25;;;;;;;;;;;;;;;;;;5051707;28;19934;-47
2022/05/24 03:01:51;;;;;;;;;;;;;;;;;;5051941;28;19913;-43
2022/05/24 03:04:18;;;;;;;;;;;;;;;;;;5052426;28;19971;-52
2022/05/24 03:09:35;;;;;;;;;;;;;;;;;;5051646;28;20015;-49
2022/05/24 03:14:46;;;;;;;;;;;;;;;;;;5051683;28;20421;-44
2022/05/24 03:17:13;;;;;;;;;;;;;;;;;;5048849;28;20257;-49
2022/05/24 03:19:40;;;;;;;;;;;;;;;;;;5051752;28;19909;-50
2022/05/24 03:22:08;;;;;;;;;;;;;;;;;;5050952;28;19952;-48
2022/05/24 03:24:34;;;;;;;;;;;;;;;;;;5050550;28;19957;-42
2022/05/24 03:27:01;;;;;;;;;;;;;;;;;;5047883;28;19921;-49
2022/05/24 03:29:28;;;;;;;;;;;;;;;;;;5051145;28;20348;-52
2022/05/24 03:31:55;;;;;;;;;;;;;;;;;;5051150;28;20519;-46
2022/05/24 03:34:21;;;;;;;;;;;;;;;;;;5051179;28;20279;-53
2022/05/24 03:36:48;;;;;;;;;;;;;;;;;;5048519;28;19968;-56
2022/05/24 03:39:15;;;;;;;;;;;;;;;;;;5050505;28;20312;-57
2022/05/24 03:41:44;;;;;;;;;;;;;;;;;;5049783;28;20378;-52
2022/05/24 03:44:10;;;;;;;;;;;;;;;;;;5050408;28;19909;-47
2022/05/24 03:46:37;;;;;;;;;;;;;;;;;;5047766;28;20429;-50
2022/05/24 03:49:04;;;;;;;;;;;;;;;;;;5050377;28;20015;-53
2022/05/24 03:51:30;;;;;;;;;;;;;;;;;;5051118;28;19916;-48
2022/05/24 03:53:57;;;;;;;;;;;;;;;;;;5050600;28;19909;-49
2022/05/24 03:56:23;;;;;;;;;;;;;;;;;;5049369;28;19940;-48
2022/05/24 03:58:50;;;;;;;;;;;;;;;;;;5048259;28;19916;-47
2022/05/24 04:01:16;;;;;;;;;;;;;;;;;;5050636;28;19967;-47
2022/05/24 04:03:43;;;;;;;;;;;;;;;;;;5050301;28;19909;-47
2022/05/24 04:06:09;;;;;;;;;;;;;;;;;;5051660;28;20007;-42
2022/05/24 04:08:36;;;;;;;;;;;;;;;;;;5049981;28;19955;-49
2022/05/24 04:11:02;;;;;;;;;;;;;;;;;;5052930;28;19917;-50
2022/05/24 04:13:29;;;;;;;;;;;;;;;;;;5052940;28;19920;-56
2022/05/24 04:15:55;;;;;;;;;;;;;;;;;;5052623;28;19967;-56
2022/05/24 04:18:21;;;;;;;;;;;;;;;;;;5052505;28;19963;-55
2022/05/24 04:20:48;;;;;;;;;;;;;;;;;;5052188;28;19990;-47
2022/05/24 04:23:15;;;;;;;;;;;;;;;;;;5052614;28;19909;-44
2022/05/24 04:25:41;;;;;;;;;;;;;;;;;;5051351;28;19978;-50
2022/05/24 04:28:07;;;;;;;;;;;;;;;;;;5051564;28;19909;-47
2022/05/24 04:30:34;;;;;;;;;;;;;;;;;;5052699;28;19970;-55
2022/05/24 04:33:00;;;;;;;;;;;;;;;;;;5051715;28;20000;-44
2022/05/24 04:35:27;;;;;;;;;;;;;;;;;;5052841;28;19916;-54
2022/05/24 04:37:53;;;;;;;;;;;;;;;;;;5052596;28;19909;-49
2022/05/24 04:42:18;;;;;;;;;;;;;;;;;;5052531;28;20044;-53
2022/05/24 04:43:06;;;;;;;;;;;;;;;;;;5052419;28;19908;-48
2022/05/24 04:45:32;;;;;;;;;;;;;;;;;;5037326;28;19913;-47
2022/05/24 04:47:59;;;;;;;;;;;;;;;;;;5051629;28;19909;-45
2022/05/24 04:50:25;;;;;;;;;;;;;;;;;;5051530;28;20004;-50
2022/05/24 04:52:52;;;;;;;;;;;;;;;;;;5051732;28;20438;-50
2022/05/24 04:55:18;;;;;;;;;;;;;;;;;;5050908;28;20320;-45
2022/05/24 04:57:45;;;;;;;;;;;;;;;;;;5050796;28;20371;-51
2022/05/24 05:00:15;;;;;;;;;;;;;;;;;;5051156;28;19924;-46
2022/05/24 05:02:42;;;;;;;;;;;;;;;;;;5051377;28;19936;-53
2022/05/24 05:05:08;;;;;;;;;;;;;;;;;;5050126;28;20283;-43
2022/05/24 05:07:35;;;;;;;;;;;;;;;;;;5050570;28;19956;-52
2022/05/24 05:10:01;;;;;;;;;;;;;;;;;;5051058;28;19997;-52
2022/05/24 05:12:28;;;;;;;;;;;;;;;;;;5051221;28;19931;-53
2022/05/24 05:14:54;;;;;;;;;;;;;;;;;;5051243;28;19913;-54
2022/05/24 05:17:21;;;;;;;;;;;;;;;;;;5051449;28;19916;-57
2022/05/24 05:19:47;;;;;;;;;;;;;;;;;;5051508;28;20286;-52
2022/05/24 05:22:14;;;;;;;;;;;;;;;;;;5051046;28;20410;-50
2022/05/24 05:24:41;;;;;;;;;;;;;;;;;;5051982;28;20351;-53
2022/05/24 05:27:07;;;;;;;;;;;;;;;;;;5051898;28;19909;-46
2022/05/24 05:32:19;;;;;;;;;;;;;;;;;;5072268;28;19931;-52
2022/05/24 05:34:45;;;;;;;;;;;;;;;;;;5071968;28;19912;-51
2022/05/24 05:37:11;;;;;;;;;;;;;;;;;;5071674;28;19914;-49
2022/05/24 05:39:38;;;;;;;;;;;;;;;;;;5071168;28;19909;-52
2022/05/24 05:42:05;;;;;;;;;;;;;;;;;;5071887;28;20286;-44
2022/05/24 05:44:31;;;;;;;;;;;;;;;;;;5071334;28;20370;-46
2022/05/24 05:46:58;;;;;;;;;;;;;;;;;;5071656;28;19915;-46
2022/05/24 05:49:24;;;;;;;;;;;;;;;;;;5073297;28;19913;-54
2022/05/24 05:51:50;;;;;;;;;;;;;;;;;;5074113;28;19920;-47
2022/05/24 05:54:17;;;;;;;;;;;;;;;;;;5063319;28;19917;-45
2022/05/24 05:56:44;;;;;;;;;;;;;;;;;;5052426;28;19931;-48
2022/05/24 05:59:10;;;;;;;;;;;;;;;;;;5053742;28;20096;-50
2022/05/24 06:01:37;;;;;;;;;;;;;;;;;;5053246;28;19932;-45
2022/05/24 06:04:03;;;;;;;;;;;;;;;;;;5050324;28;19982;-47
2022/05/24 06:06:30;;;;;;;;;;;;;;;;;;5052919;28;19908;-48
2022/05/24 06:08:56;;;;;;;;;;;;;;;;;;5052754;28;19991;-49
2022/05/24 06:11:23;;;;;;;;;;;;;;;;;;5052444;28;20011;-53
2022/05/24 06:13:50;;;;;;;;;;;;;;;;;;5051182;28;19944;-46
2022/05/24 06:16:16;;;;;;;;;;;;;;;;;;5051196;28;20386;-52
2022/05/24 06:18:42;;;;;;;;;;;;;;;;;;5052897;28;20014;-42
2022/05/24 06:21:09;;;;;;;;;;;;;;;;;;5052971;28;19943;-45
2022/05/24 06:23:35;;;;;;;;;;;;;;;;;;5051729;28;19923;-50
2022/05/24 06:26:02;;;;;;;;;;;;;;;;;;5049671;28;19920;-54
2022/05/24 06:28:28;;;;;;;;;;;;;;;;;;5051720;28;19908;-55
2022/05/24 06:30:55;;;;;;;;;;;;;;;;;;5050704;28;19917;-49
2022/05/24 06:33:21;;;;;;;;;;;;;;;;;;5050030;28;19912;-50
2022/05/24 06:35:48;;;;;;;;;;;;;;;;;;5049375;28;19963;-50
2022/05/24 06:38:15;;;;;;;;;;;;;;;;;;5051856;28;19920;-52
2022/05/24 06:40:41;;;;;;;;;;;;;;;;;;5051435;28;19912;-49
2022/05/24 06:43:09;;;;;;;;;;;;;;;;;;5051224;28;19995;-50
2022/05/24 06:45:35;;;;;;;;;;;;;;;;;;5047589;28;19923;-53
2022/05/24 06:48:01;;;;;;;;;;;;;;;;;;5051214;28;19948;-47
2022/05/24 06:50:28;;;;;;;;;;;;;;;;;;5051598;28;19955;-48
2022/05/24 06:52:54;;;;;;;;;;;;;;;;;;5051262;28;19913;-48
2022/05/24 06:55:21;;;;;;;;;;;;;;;;;;5049046;28;19962;-46
2022/05/24 06:57:47;;;;;;;;;;;;;;;;;;5050865;28;19909;-45
2022/05/24 07:02:59;;;;;;;;;;;;;;;;;;5051517;28;19952;-49
2022/05/24 07:05:25;;;;;;;;;;;;;;;;;;5047483;28;20312;-48
2022/05/24 07:07:52;;;;;;;;;;;;;;;;;;5050880;28;19909;-50
2022/05/24 07:10:19;;;;;;;;;;;;;;;;;;5050955;28;19913;-51
2022/05/24 07:12:45;;;;;;;;;;;;;;;;;;5050513;28;19921;-46
2022/05/24 07:15:12;;;;;;;;;;;;;;;;;;5049067;28;20156;-46
2022/05/24 07:17:38;;;;;;;;;;;;;;;;;;5051050;28;19999;-49
2022/05/24 07:20:05;;;;;;;;;;;;;;;;;;5050501;28;19942;-50
2022/05/24 07:22:31;;;;;;;;;;;;;;;;;;5050658;28;19920;-51
2022/05/24 07:24:58;;;;;;;;;;;;;;;;;;5047290;28;19928;-47
2022/05/24 07:27:24;;;;;;;;;;;;;;;;;;5051001;28;19916;-49
2022/05/24 07:29:51;;;;;;;;;;;;;;;;;;5049803;28;20004;-55
2022/05/24 07:32:17;;;;;;;;;;;;;;;;;;5050581;28;19925;-53
2022/05/24 07:34:44;;;;;;;;;;;;;;;;;;5048298;28;19920;-50
2022/05/24 07:37:10;;;;;;;;;;;;;;;;;;5051124;28;19912;-51
2022/05/24 07:39:37;;;;;;;;;;;;;;;;;;5050844;28;20401;-48
2022/05/24 07:47:17;;;;;;;;;;;;;;;;;;5050587;28;20401;-50
2022/05/24 07:49:43;;;;;;;;;;;;;;;;;;5050496;28;20007;-44
2022/05/24 07:52:10;;;;;;;;;;;;;;;;;;5051661;28;20002;-52
2022/05/24 07:54:36;;;;;;;;;;;;;;;;;;5047799;28;19917;-47
2022/05/24 07:57:03;;;;;;;;;;;;;;;;;;5050514;28;19991;-46
2022/05/24 07:59:29;;;;;;;;;;;;;;;;;;5050282;28;19909;-46
2022/05/24 08:01:56;;;;;;;;;;;;;;;;;;5050325;28;19921;-47
2022/05/24 08:04:22;;;;;;;;;;;;;;;;;;5047125;28;19919;-51
2022/05/24 08:06:49;;;;;;;;;;;;;;;;;;5050241;28;20330;-47
2022/05/24 08:09:15;;;;;;;;;;;;;;;;;;5048002;28;19916;-48
2022/05/24 08:11:42;;;;;;;;;;;;;;;;;;5050549;28;19970;-52
2022/05/24 08:14:10;;;;;;;;;;;;;;;;;;5051471;28;19982;-48
2022/05/24 08:16:36;;;;;;;;;;;;;;;;;;5051702;28;19963;-49
2022/05/24 08:19:04;;;;;;;;;;;;;;;;;;5052183;28;20410;-51
2022/05/24 08:21:30;;;;;;;;;;;;;;;;;;5060377;28;19912;-54
2022/05/24 08:23:57;;;;;;;;;;;;;;;;;;5072560;28;20045;-48
2022/05/24 08:26:23;;;;;;;;;;;;;;;;;;5072368;28;19931;-49
2022/05/24 08:28:51;;;;;;;;;;;;;;;;;;5072249;28;20252;-48
2022/05/24 08:31:17;;;;;;;;;;;;;;;;;;5072053;28;20396;-54
2022/05/24 08:33:44;;;;;;;;;;;;;;;;;;5072718;28;19913;-52
2022/05/24 08:36:10;;;;;;;;;;;;;;;;;;5072686;28;19915;-49
2022/05/24 08:38:37;;;;;;;;;;;;;;;;;;5071433;28;19908;-55
2022/05/24 08:41:03;;;;;;;;;;;;;;;;;;5050293;28;19919;-54
2022/05/24 08:43:30;;;;;;;;;;;;;;;;;;5047454;28;19917;-55
2022/05/24 08:48:41;;;;;;;;;;;;;;;;;;5050005;28;19916;-51
2022/05/24 08:51:07;;;;;;;;;;;;;;;;;;5048999;28;19928;-51
2022/05/24 08:53:34;;;;;;;;;;;;;;;;;;5046775;28;19912;-53
2022/05/24 08:56:02;;;;;;;;;;;;;;;;;;5049704;28;20394;-53
2022/05/24 08:58:29;;;;;;;;;;;;;;;;;;5049376;28;19916;-57
2022/05/24 09:00:56;;;;;;;;;;;;;;;;;;5056112;28;19908;-53
2022/05/24 09:03:25;;;;;;;;;;;;;;;;;;5071392;28;19954;-49
2022/05/24 09:05:51;;;;;;;;;;;;;;;;;;5070759;28;19908;-58
2022/05/24 09:08:18;;;;;;;;;;;;;;;;;;5071695;28;19908;-52
2022/05/24 09:10:45;;;;;;;;;;;;;;;;;;5057580;28;19920;-44
2022/05/24 09:13:11;;;;;;;;;;;;;;;;;;5048752;28;20377;-49
2022/05/24 09:15:38;;;;;;;;;;;;;;;;;;5052691;28;19971;-52
2022/05/24 09:18:04;;;;;;;;;;;;;;;;;;5051902;28;20394;-53
2022/05/24 09:20:31;;;;;;;;;;;;;;;;;;5049419;28;20287;-52
2022/05/24 09:22:57;;;;;;;;;;;;;;;;;;5047715;28;19999;-48
2022/05/24 09:25:24;;;;;;;;;;;;;;;;;;5053967;28;19909;-50
2022/05/24 09:27:51;;;;;;;;;;;;;;;;;;5054778;28;19952;-48
2022/05/24 09:30:17;;;;;;;;;;;;;;;;;;5053553;28;19915;-51
2022/05/24 09:32:44;;;;;;;;;;;;;;;;;;5051239;28;20012;-53
2022/05/24 09:35:11;;;;;;;;;;;;;;;;;;5052125;28;20290;-48
2022/05/24 09:37:37;;;;;;;;;;;;;;;;;;5053377;28;19938;-55
2022/05/24 09:40:04;;;;;;;;;;;;;;;;;;5053026;28;19913;-53
2022/05/24 09:42:31;;;;;;;;;;;;;;;;;;5051043;28;20025;-53
2022/05/24 09:44:57;;;;;;;;;;;;;;;;;;5053859;28;19909;-47
2022/05/24 09:47:23;;;;;;;;;;;;;;;;;;5052929;28;19913;-52
2022/05/24 09:49:50;;;;;;;;;;;;;;;;;;5052477;28;20007;-52
2022/05/24 09:52:16;;;;;;;;;;;;;;;;;;5050558;28;19927;-57
2022/05/24 09:54:43;;;;;;;;;;;;;;;;;;5052899;28;19916;-50
2022/05/24 09:57:09;;;;;;;;;;;;;;;;;;5052161;28;19996;-46
2022/05/24 09:59:36;;;;;;;;;;;;;;;;;;5053273;28;19963;-58
2022/05/24 10:02:02;;;;;;;;;;;;;;;;;;5050707;28;19916;-49
2022/05/24 10:04:29;;;;;;;;;;;;;;;;;;5051903;28;19915;-47
2022/05/24 10:06:56;;;;;;;;;;;;;;;;;;5053377;28;19923;-46
2022/05/24 10:09:22;;;;;;;;;;;;;;;;;;5052040;28;19979;-46
2022/05/24 10:11:49;;;;;;;;;;;;;;;;;;5050104;28;19975;-57
2022/05/24 10:14:17;;;;;;;;;;;;;;;;;;5052767;28;20291;-48
2022/05/24 10:16:44;;;;;;;;;;;;;;;;;;5052635;28;19982;-50
2022/05/24 10:19:11;;;;;;;;;;;;;;;;;;5052674;28;20245;-43
2022/05/24 10:21:37;;;;;;;;;;;;;;;;;;5050469;28;19932;-52
2022/05/24 10:24:04;;;;;;;;;;;;;;;;;;5052412;28;19948;-50
2022/05/24 10:26:30;;;;;;;;;;;;;;;;;;5052883;28;19962;-49
2022/05/24 10:28:56;;;;;;;;;;;;;;;;;;5052981;28;20020;-43
2022/05/24 10:31:23;;;;;;;;;;;;;;;;;;5050182;28;20335;-44
2022/05/24 10:39:19;;;;;;;;;;;;;;;;;;5051581;28;20433;-42
2022/05/24 10:41:45;;;;;;;;;;;;;;;;;;5049964;28;20306;-44
2022/05/24 10:44:13;;;;;;;;;;;;;;;;;;5050914;28;19932;-46
2022/05/24 10:46:39;;;;;;;;;;;;;;;;;;5052148;28;19916;-44
2022/05/24 10:49:06;;;;;;;;;;;;;;;;;;5052061;28;19928;-46
2022/05/24 10:51:33;;;;;;;;;;;;;;;;;;5049392;28;19924;-52
2022/05/24 10:54:01;;;;;;;;;;;;;;;;;;5052475;28;19928;-49
2022/05/24 10:56:27;;;;;;;;;;;;;;;;;;5052429;28;19973;-51
2022/05/24 10:58:53;;;;;;;;;;;;;;;;;;5053949;28;20367;-53
2022/05/24 11:01:20;;;;;;;;;;;;;;;;;;5049246;28;20655;-47
2022/05/24 11:03:46;;;;;;;;;;;;;;;;;;5051766;28;20410;-50
2022/05/24 11:06:13;;;;;;;;;;;;;;;;;;5053577;28;20393;-48
2022/05/24 11:08:39;;;;;;;;;;;;;;;;;;5052182;28;20328;-53
2022/05/24 11:11:06;;;;;;;;;;;;;;;;;;5049186;28;19960;-54
2022/05/24 11:13:33;;;;;;;;;;;;;;;;;;5053334;28;19931;-49
2022/05/24 11:16:00;;;;;;;;;;;;;;;;;;5053501;28;20344;-47
2022/05/24 11:18:27;;;;;;;;;;;;;;;;;;5054399;28;19909;-46
2022/05/24 11:20:54;;;;;;;;;;;;;;;;;;5054593;28;19908;-43
2022/05/24 11:23:21;;;;;;;;;;;;;;;;;;5054369;28;19954;-43
2022/05/24 11:25:49;;;;;;;;;;;;;;;;;;5072999;28;19908;-43
2022/05/24 11:28:15;;;;;;;;;;;;;;;;;;5073200;28;20359;-40
2022/05/24 11:30:42;;;;;;;;;;;;;;;;;;5072832;28;20412;-42
2022/05/24 11:33:09;;;;;;;;;;;;;;;;;;5074192;28;19912;-46
2022/05/24 11:35:36;;;;;;;;;;;;;;;;;;5074392;28;19908;-42
2022/05/24 11:38:03;;;;;;;;;;;;;;;;;;5073492;28;19973;-42
2022/05/24 11:40:30;;;;;;;;;;;;;;;;;;5073302;28;19915;-43
2022/05/24 11:42:56;;;;;;;;;;;;;;;;;;5074003;28;19931;-41
2022/05/24 11:45:23;;;;;;;;;;;;;;;;;;5074348;28;19993;-46
2022/05/24 11:47:49;;;;;;;;;;;;;;;;;;5073263;28;19908;-42
2022/05/24 11:50:15;;;;;;;;;;;;;;;;;;5073805;28;19950;-43
2022/05/24 11:52:43;;;;;;;;;;;;;;;;;;5073323;28;19930;-43
2022/05/24 11:55:09;;;;;;;;;;;;;;;;;;5073401;28;19970;-46
2022/05/24 11:57:37;;;;;;;;;;;;;;;;;;5073879;28;19999;-46
2022/05/24 12:00:03;;;;;;;;;;;;;;;;;;5073111;28;19915;-41
2022/05/24 12:07:54;;;;;;;;;;;;;;;;;;5053128;28;19920;-43
2022/05/24 12:08:14;;;;;;;;;;;;;;;;;;5110298;27;19918;-42
2022/05/24 12:10:41;;;;;;;;;;;;;;;;;;5106414;28;20064;-41
2022/05/24 12:13:07;;;;;;;;;;;;;;;;;;5107804;28;20273;-49
2022/05/24 12:15:34;;;;;;;;;;;;;;;;;;5108248;28;19955;-52
2022/05/24 12:18:01;;;;;;;;;;;;;;;;;;5107971;28;19908;-52
2022/05/24 12:20:27;;;;;;;;;;;;;;;;;;5105959;28;19955;-41
2022/05/24 12:22:53;;;;;;;;;;;;;;;;;;5107636;28;19908;-44
2022/05/24 12:25:20;;;;;;;;;;;;;;;;;;5108003;28;19935;-41
2022/05/24 12:27:46;;;;;;;;;;;;;;;;;;5107675;28;20380;-44
2022/05/24 12:30:13;;;;;;;;;;;;;;;;;;5108685;28;19912;-43
2022/05/24 12:32:41;;;;;;;;;;;;;;;;;;5108668;28;19970;-40
2022/05/24 12:35:08;;;;;;;;;;;;;;;;;;5109377;28;19947;-46
2022/05/24 12:37:35;;;;;;;;;;;;;;;;;;5103733;28;19908;-39
2022/05/24 12:40:01;;;;;;;;;;;;;;;;;;5107256;28;19928;-49
2022/05/24 12:42:28;;;;;;;;;;;;;;;;;;5108810;28;19908;-44
2022/05/24 12:44:54;;;;;;;;;;;;;;;;;;5107680;28;19908;-40
2022/05/24 12:47:21;;;;;;;;;;;;;;;;;;5104971;28;20381;-47
2022/05/24 12:49:48;;;;;;;;;;;;;;;;;;5106939;28;19908;-45
2022/05/24 12:52:14;;;;;;;;;;;;;;;;;;5107819;28;19922;-39
2022/05/24 12:54:40;;;;;;;;;;;;;;;;;;5103857;28;19908;-54
2022/05/24 12:57:07;;;;;;;;;;;;;;;;;;5106241;28;19912;-49
2022/05/24 12:59:34;;;;;;;;;;;;;;;;;;5107194;28;19908;-42
2022/05/24 13:02:01;;;;;;;;;;;;;;;;;;5107185;28;19987;-51
2022/05/24 13:04:27;;;;;;;;;;;;;;;;;;5107609;28;19908;-46
2022/05/24 13:06:54;;;;;;;;;;;;;;;;;;5109040;28;19924;-51
2022/05/24 13:09:20;;;;;;;;;;;;;;;;;;5108081;28;19908;-53
2022/05/24 13:11:47;;;;;;;;;;;;;;;;;;5109771;28;20307;-55
2022/05/24 13:14:13;;;;;;;;;;;;;;;;;;5109352;28;20468;-48
2022/05/24 13:16:41;;;;;;;;;;;;;;;;;;5109479;28;20057;-44
2022/05/24 13:19:07;;;;;;;;;;;;;;;;;;5098408;28;20271;-51
2022/05/24 13:21:35;;;;;;;;;;;;;;;;;;5095897;28;20210;-44
2022/05/24 13:24:01;;;;;;;;;;;;;;;;;;5095322;28;20346;-42
2022/05/24 13:26:27;;;;;;;;;;;;;;;;;;5095741;28;20281;-48
2022/05/24 13:28:58;;;;;;;;;;;;;;;;;;5095639;28;19931;-45
2022/05/24 13:34:08;;;;;;;;;;;;;;;;;;5095770;28;19915;-50
2022/05/24 13:36:35;;;;;;;;;;;;;;;;;;5095511;28;19914;-49
2022/05/24 13:39:01;;;;;;;;;;;;;;;;;;5095272;28;19998;-50
2022/05/24 13:41:29;;;;;;;;;;;;;;;;;;5095689;28;19915;-53
2022/05/24 13:43:56;;;;;;;;;;;;;;;;;;5095541;28;19912;-55
2022/05/24 13:46:22;;;;;;;;;;;;;;;;;;5095301;28;20019;-51
2022/05/24 13:48:49;;;;;;;;;;;;;;;;;;5095180;28;19916;-45
2022/05/24 13:51:16;;;;;;;;;;;;;;;;;;5094940;28;20425;-52
2022/05/24 13:53:42;;;;;;;;;;;;;;;;;;5095246;28;19956;-45
2022/05/24 13:56:09;;;;;;;;;;;;;;;;;;5094938;28;20331;-50
2022/05/24 13:58:35;;;;;;;;;;;;;;;;;;5095509;28;19908;-55
2022/05/24 14:01:02;;;;;;;;;;;;;;;;;;5095035;28;19915;-52
2022/05/24 14:03:28;;;;;;;;;;;;;;;;;;5094882;28;19934;-43
2022/05/24 14:05:55;;;;;;;;;;;;;;;;;;5096562;28;19915;-52
2022/05/24 14:08:22;;;;;;;;;;;;;;;;;;5115543;28;19908;-50
2022/05/24 14:10:49;;;;;;;;;;;;;;;;;;5115138;28;19908;-48
2022/05/24 14:13:15;;;;;;;;;;;;;;;;;;5115142;28;20423;-47
2022/05/24 14:15:42;;;;;;;;;;;;;;;;;;5115008;28;19907;-51
2022/05/24 14:18:08;;;;;;;;;;;;;;;;;;5115535;28;19915;-43
2022/05/24 14:20:35;;;;;;;;;;;;;;;;;;5114784;28;19908;-47
2022/05/24 14:23:01;;;;;;;;;;;;;;;;;;5114968;28;19912;-42
2022/05/24 14:25:28;;;;;;;;;;;;;;;;;;5115217;28;19908;-41
2022/05/24 14:27:55;;;;;;;;;;;;;;;;;;5114845;28;19938;-43
2022/05/24 14:30:22;;;;;;;;;;;;;;;;;;5114079;28;19946;-49
2022/05/24 14:32:48;;;;;;;;;;;;;;;;;;5114727;28;19915;-56
2022/05/24 14:35:14;;;;;;;;;;;;;;;;;;5114736;28;20006;-50
2022/05/24 14:37:41;;;;;;;;;;;;;;;;;;5114528;28;19999;-50
2022/05/24 14:40:07;;;;;;;;;;;;;;;;;;5115221;28;19908;-44
2022/05/24 14:42:34;;;;;;;;;;;;;;;;;;5114797;28;19908;-51
2022/05/24 14:45:01;;;;;;;;;;;;;;;;;;5113056;28;20293;-41
2022/05/24 14:47:28;;;;;;;;;;;;;;;;;;5114704;28;20259;-47
2022/05/24 14:49:54;;;;;;;;;;;;;;;;;;5114527;28;20262;-52
2022/05/24 14:52:21;;;;;;;;;;;;;;;;;;5114647;28;20342;-51
2022/05/24 14:54:47;;;;;;;;;;;;;;;;;;5114666;28;20274;-39
2022/05/24 14:57:14;;;;;;;;;;;;;;;;;;5114276;28;20323;-41
2022/05/24 14:59:43;;;;;;;;;;;;;;;;;;5114737;28;20247;-45
2022/05/24 15:02:09;;;;;;;;;;;;;;;;;;5114487;28;20046;-46
2022/05/24 15:04:36;;;;;;;;;;;;;;;;;;5114394;28;19933;-55
2022/05/24 15:15:23;;;;;;;;;;;;;;;;;;5114056;28;20016;-56
2022/05/24 15:17:50;;;;;;;;;;;;;;;;;;5113868;28;19912;-56
2022/05/24 15:20:17;;;;;;;;;;;;;;;;;;5114219;27;19916;-44
2022/05/24 15:22:43;;;;;;;;;;;;;;;;;;5113763;28;19912;-54
2022/05/24 15:25:09;;;;;;;;;;;;;;;;;;5114125;28;19953;-40
2022/05/24 15:27:36;;;;;;;;;;;;;;;;;;5113767;28;19925;-48
2022/05/24 15:30:02;;;;;;;;;;;;;;;;;;5113870;28;19912;-41
2022/05/24 15:32:29;;;;;;;;;;;;;;;;;;5113885;28;19960;-50
2022/05/24 15:34:55;;;;;;;;;;;;;;;;;;5113651;28;19911;-45
2022/05/24 15:37:22;;;;;;;;;;;;;;;;;;5113879;28;20049;-44
2022/05/24 15:39:48;;;;;;;;;;;;;;;;;;5113611;28;19929;-55
2022/05/24 15:42:15;;;;;;;;;;;;;;;;;;5113547;28;19912;-53
2022/05/24 15:44:41;;;;;;;;;;;;;;;;;;5114049;28;19998;-53
2022/05/24 15:47:08;;;;;;;;;;;;;;;;;;5113556;28;19916;-46
2022/05/24 15:49:34;;;;;;;;;;;;;;;;;;5113245;28;19991;-48
2022/05/24 15:52:01;;;;;;;;;;;;;;;;;;5113635;28;20273;-52
2022/05/24 15:54:27;;;;;;;;;;;;;;;;;;5113323;28;19907;-51
2022/05/24 15:56:54;;;;;;;;;;;;;;;;;;5113772;28;19908;-44
2022/05/24 15:59:20;;;;;;;;;;;;;;;;;;5113257;28;19908;-46
2022/05/24 16:01:47;;;;;;;;;;;;;;;;;;5113664;28;19908;-50
2022/05/24 16:04:13;;;;;;;;;;;;;;;;;;5109345;28;19995;-41
2022/05/24 16:12:09;;;;;;;;;;;;;;;;;;5092830;28;19914;-51
2022/05/24 16:14:35;;;;;;;;;;;;;;;;;;5093230;28;20307;-41
2022/05/24 16:17:02;;;;;;;;;;;;;;;;;;5104787;28;20326;-43
2022/05/24 16:19:28;;;;;;;;;;;;;;;;;;5113438;28;19954;-47
2022/05/24 16:21:55;;;;;;;;;;;;;;;;;;5113385;28;19915;-54
2022/05/24 16:24:22;;;;;;;;;;;;;;;;;;5113461;28;19995;-48
2022/05/24 16:26:49;;;;;;;;;;;;;;;;;;5113098;28;19965;-49
2022/05/24 16:29:15;;;;;;;;;;;;;;;;;;5113135;28;19999;-49
2022/05/24 16:31:42;;;;;;;;;;;;;;;;;;5113250;28;19907;-46
2022/05/24 16:34:09;;;;;;;;;;;;;;;;;;5113104;28;19908;-48
2022/05/24 16:36:35;;;;;;;;;;;;;;;;;;5112923;28;19949;-47
2022/05/24 16:39:02;;;;;;;;;;;;;;;;;;5113069;28;19940;-45
2022/05/24 16:41:28;;;;;;;;;;;;;;;;;;5113195;28;19955;-52
2022/05/24 16:43:55;;;;;;;;;;;;;;;;;;5113276;28;19908;-50
2022/05/24 16:46:22;;;;;;;;;;;;;;;;;;5112864;28;19916;-47
2022/05/24 16:48:48;;;;;;;;;;;;;;;;;;5113160;28;19907;-49
2022/05/24 16:51:16;;;;;;;;;;;;;;;;;;5112501;28;20434;-48
2022/05/24 16:53:44;;;;;;;;;;;;;;;;;;5114717;28;19908;-53
2022/05/24 16:58:54;;;;;;;;;;;;;;;;;;5117236;28;19914;-57
2022/05/24 17:01:22;;;;;;;;;;;;;;;;;;5096987;28;19912;-57
2022/05/24 17:03:48;;;;;;;;;;;;;;;;;;5096636;28;19912;-56
2022/05/24 17:06:15;;;;;;;;;;;;;;;;;;5096341;28;19920;-51
2022/05/24 17:08:41;;;;;;;;;;;;;;;;;;5096439;28;19908;-50
2022/05/24 17:11:08;;;;;;;;;;;;;;;;;;5096222;28;19954;-50
2022/05/24 17:13:34;;;;;;;;;;;;;;;;;;5090485;28;19916;-53
2022/05/24 17:16:01;;;;;;;;;;;;;;;;;;5075899;28;19999;-55
2022/05/24 17:18:28;;;;;;;;;;;;;;;;;;5075815;28;19984;-51
2022/05/24 17:20:54;;;;;;;;;;;;;;;;;;5075410;28;19975;-55
2022/05/24 17:23:21;;;;;;;;;;;;;;;;;;5075552;28;19953;-51
2022/05/24 17:25:47;;;;;;;;;;;;;;;;;;5075874;28;19952;-43
2022/05/24 17:28:14;;;;;;;;;;;;;;;;;;5075305;28;19916;-48
2022/05/24 17:30:40;;;;;;;;;;;;;;;;;;5075953;28;19908;-52
2022/05/24 17:33:07;;;;;;;;;;;;;;;;;;5075468;28;20341;-49
2022/05/24 17:35:33;;;;;;;;;;;;;;;;;;5075444;28;19913;-49
2022/05/24 17:38:00;;;;;;;;;;;;;;;;;;5075500;28;19912;-49